Time;durP1;ratioP1;P1;durP2;ratioP2;P2;SDS_P1;SDS_P2;PMS_P1;PMS_P2;Temp;Humidity;BMP_temperature;BMP_pressure;BME280_temperature;BME280_humidity;BME280_pressure;Samples;Min_cycle;Max_cycle;Signal;HPM_P1;HPM_P2
2023/12/20 00:01:53;;;;;;;;;;;;;;;6.19;93.69;99732.91;111443;1256;22769;-76
2023/12/20 00:04:44;;;;;;;10.50;2.90;;;;;;;6.19;93.77;99726.85;111427;1268;22796;-75
2023/12/20 00:07:35;;;;;;;13.70;2.90;;;;;;;6.18;93.93;99731.84;111431;1267;22885;-73
2023/12/20 00:10:25;;;;;;;14.40;3.00;;;;;;;6.18;93.84;99733.04;111322;1261;22134;-74
2023/12/20 00:13:15;;;;;;;;;;;;;;;6.20;93.95;99715.80;111399;1247;22369;-74
2023/12/20 00:16:06;;;;;;;11.80;3.50;;;;;;;6.20;94.01;99726.39;111394;1267;22720;-76
2023/12/20 00:18:57;;;;;;;12.70;4.30;;;;;;;6.20;93.98;99723.45;111424;1265;22947;-75
2023/12/20 00:21:48;;;;;;;12.30;3.30;;;;;;;6.21;94.02;99714.38;111397;1267;22319;-73
2023/12/20 00:24:37;;;;;;;;;;;;;;;6.21;93.98;99711.84;111450;1267;22353;-73
2023/12/20 00:27:27;;;;;;;12.70;3.20;;;;;;;6.19;94.11;99710.04;111353;1266;22244;-74
2023/12/20 00:30:18;;;;;;;12.40;3.30;;;;;;;6.18;94.23;99715.40;111356;1260;22165;-76
2023/12/20 00:33:07;;;;;;;;;;;;;;;6.17;94.28;99720.81;111361;1264;22380;-74
2023/12/20 00:35:58;;;;;;;11.60;3.00;;;;;;;6.16;94.51;99717.48;111388;1264;22265;-75
2023/12/20 00:38:49;;;;;;;13.60;3.20;;;;;;;6.15;94.44;99720.27;111412;1263;22100;-73
2023/12/20 00:41:40;;;;;;;15.10;4.00;;;;;;;6.15;94.52;99721.41;111374;1263;22887;-75
2023/12/20 00:44:31;;;;;;;13.00;4.20;;;;;;;6.14;94.64;99715.33;111374;1264;23049;-75
2023/12/20 00:47:21;;;;;;;14.50;4.40;;;;;;;6.13;94.76;99709.05;111389;1260;22112;-75
2023/12/20 00:50:12;;;;;;;14.20;4.00;;;;;;;6.13;94.75;99707.08;111365;1260;22429;-74
2023/12/20 00:53:03;;;;;;;16.30;4.90;;;;;;;6.11;94.83;99705.38;111384;1267;22207;-78
2023/12/20 00:55:54;;;;;;;11.90;3.80;;;;;;;6.11;94.93;99701.78;111398;1268;22122;-74
2023/12/20 00:58:45;;;;;;;13.00;4.00;;;;;;;6.10;95.18;99708.93;111433;1267;22158;-73
2023/12/20 01:01:36;;;;;;;14.20;4.30;;;;;;;6.09;95.24;99707.63;111406;1268;22323;-77
2023/12/20 01:04:25;;;;;;;;;;;;;;;6.09;95.47;99704.40;111379;1267;22502;-74
2023/12/20 01:07:15;;;;;;;14.40;4.40;;;;;;;6.08;95.83;99699.77;111385;1264;22218;-76
2023/12/20 01:10:07;;;;;;;14.80;4.20;;;;;;;6.06;95.89;99701.60;111375;1264;22152;-74
2023/12/20 01:12:58;;;;;;;12.80;4.00;;;;;;;6.05;95.99;99692.69;111382;1260;22327;-76
2023/12/20 01:15:49;;;;;;;13.90;4.10;;;;;;;6.04;96.04;99695.65;111400;1258;22102;-75
2023/12/20 01:18:39;;;;;;;16.30;4.20;;;;;;;6.04;96.23;99694.02;111375;1267;22148;-74
2023/12/20 01:21:28;;;;;;;;;;;;;;;6.03;96.37;99690.83;111406;1263;22403;-76
2023/12/20 01:24:19;;;;;;;17.10;5.00;;;;;;;6.02;96.50;99688.52;111366;1262;22322;-76
2023/12/20 01:27:09;;;;;;;9.70;3.40;;;;;;;6.02;96.67;99687.42;111368;1260;22198;-74
2023/12/20 01:29:58;;;;;;;;;;;;;;;6.02;96.66;99690.52;111399;1260;22339;-76
2023/12/20 01:32:49;;;;;;;14.60;4.40;;;;;;;6.02;96.90;99691.00;111423;1261;22907;-77
2023/12/20 01:35:39;;;;;;;16.90;5.90;;;;;;;6.01;96.93;99683.19;111416;1260;22095;-75
2023/12/20 01:38:30;;;;;;;14.40;4.80;;;;;;;6.01;97.09;99679.02;111352;1261;22277;-74
2023/12/20 01:41:21;;;;;;;14.90;5.10;;;;;;;5.99;97.19;99674.27;111313;1256;22293;-74
2023/12/20 01:44:11;;;;;;;13.50;4.60;;;;;;;5.98;97.26;99669.72;111385;1260;22352;-76
2023/12/20 01:47:03;;;;;;;16.80;6.30;;;;;;;5.98;97.49;99673.42;111374;1268;22235;-74
2023/12/20 01:49:53;;;;;;;15.20;4.40;;;;;;;5.98;97.53;99663.69;111426;1268;22210;-75
2023/12/20 01:52:45;;;;;;;14.10;3.60;;;;;;;5.98;97.69;99661.42;111408;1267;22235;-77
2023/12/20 01:55:39;;;;;;;12.30;3.90;;;;;;;5.98;97.83;99659.52;111430;1268;23055;-76
2023/12/20 01:58:30;;;;;;;15.20;3.90;;;;;;;5.97;97.98;99653.38;111395;1263;22853;-74
2023/12/20 02:01:21;;;;;;;13.90;3.80;;;;;;;5.97;98.04;99646.83;111413;1267;22192;-74
2023/12/20 02:04:12;;;;;;;11.10;3.00;;;;;;;5.97;98.15;99649.56;111192;1266;22204;-76
2023/12/20 02:07:04;;;;;;;10.90;3.20;;;;;;;5.96;98.18;99652.91;111412;1264;22271;-74
2023/12/20 02:09:56;;;;;;;11.70;3.10;;;;;;;5.96;98.29;99653.96;111408;1260;22236;-73
2023/12/20 02:12:46;;;;;;;8.80;2.70;;;;;;;5.95;98.46;99641.41;111364;1263;22285;-72
2023/12/20 02:15:38;;;;;;;11.70;3.00;;;;;;;5.96;98.52;99633.31;111394;1260;22232;-74
2023/12/20 02:18:29;;;;;;;9.90;2.80;;;;;;;5.97;98.52;99643.73;111381;1268;22290;-73
2023/12/20 02:21:21;;;;;;;11.50;2.60;;;;;;;5.98;98.66;99647.27;111379;1260;22238;-74
2023/12/20 02:24:12;;;;;;;10.00;2.70;;;;;;;5.97;98.68;99645.13;111370;1264;22432;-74
2023/12/20 02:27:03;;;;;;;9.30;2.80;;;;;;;5.97;98.70;99642.77;111384;1261;22183;-73
2023/12/20 02:29:54;;;;;;;10.20;2.90;;;;;;;5.98;98.88;99641.46;111401;1267;22997;-76
2023/12/20 02:32:45;;;;;;;11.80;3.00;;;;;;;5.98;98.88;99635.93;111389;1258;23128;-74
2023/12/20 02:35:35;;;;;;;12.80;4.30;;;;;;;5.99;98.90;99633.27;111369;1266;23463;-74
2023/12/20 02:38:26;;;;;;;9.30;2.90;;;;;;;5.98;98.90;99629.84;111381;1267;22784;-75
2023/12/20 02:41:18;;;;;;;12.00;2.80;;;;;;;5.97;99.06;99631.83;111416;1260;22303;-74
2023/12/20 02:44:08;;;;;;;14.70;2.80;;;;;;;5.97;99.09;99628.11;111397;1260;22315;-80
2023/12/20 02:46:59;;;;;;;10.80;2.60;;;;;;;5.98;99.00;99629.48;111424;1268;22281;-73
2023/12/20 02:49:50;;;;;;;7.20;1.90;;;;;;;5.98;99.16;99626.81;111466;1267;22426;-74
2023/12/20 02:52:42;;;;;;;9.20;2.10;;;;;;;5.98;99.14;99624.50;111370;1264;23274;-74
2023/12/20 02:55:32;;;;;;;7.60;1.90;;;;;;;5.98;99.08;99614.33;111398;1260;22157;-73
2023/12/20 02:58:23;;;;;;;8.50;1.90;;;;;;;5.97;99.07;99612.94;111400;1260;22071;-74
2023/12/20 03:01:14;;;;;;;7.30;1.60;;;;;;;5.96;99.19;99608.87;111398;1264;22172;-74
2023/12/20 03:04:05;;;;;;;8.30;1.60;;;;;;;5.95;98.99;99603.75;111271;1268;140730;-74
2023/12/20 03:06:55;;;;;;;5.90;1.60;;;;;;;5.94;99.21;99596.98;111415;1257;22169;-73
2023/12/20 03:09:46;;;;;;;5.90;1.20;;;;;;;5.92;99.03;99597.30;111406;1267;22159;-73
2023/12/20 03:12:37;;;;;;;7.20;1.20;;;;;;;5.91;99.06;99600.92;111411;1260;22345;-76
2023/12/20 03:15:26;;;;;;;;;;;;;;;5.89;99.04;99597.14;111436;1267;22377;-73
2023/12/20 03:18:17;;;;;;;7.50;1.30;;;;;;;5.86;99.20;99599.48;111406;1268;22174;-73
2023/12/20 03:21:08;;;;;;;4.80;1.30;;;;;;;5.85;99.21;99605.45;111397;1268;23080;-80
2023/12/20 03:23:59;;;;;;;6.30;1.50;;;;;;;5.83;99.40;99606.23;111443;1265;22173;-77
2023/12/20 03:26:48;;;;;;;;;;;;;;;5.81;99.25;99599.98;111359;1263;22908;-73
2023/12/20 03:29:39;;;;;;;6.10;1.30;;;;;;;5.79;99.39;99595.49;111432;1260;22296;-76
2023/12/20 03:32:28;;;;;;;;;;;;;;;5.78;99.48;99594.75;111398;1259;22382;-74
2023/12/20 03:35:18;;;;;;;7.40;1.30;;;;;;;5.75;99.48;99598.31;111406;1260;22479;-74
2023/12/20 03:38:10;;;;;;;4.90;1.10;;;;;;;5.74;99.56;99600.05;111389;1267;22164;-75
2023/12/20 03:41:01;;;;;;;4.30;1.10;;;;;;;5.72;99.33;99595.36;111435;1256;22146;-74
2023/12/20 03:43:52;;;;;;;3.50;1.00;;;;;;;5.71;99.34;99603.95;111438;1267;22795;-73
2023/12/20 03:46:42;;;;;;;5.10;0.80;;;;;;;5.70;99.42;99606.08;111414;1268;22125;-75
2023/12/20 03:49:32;;;;;;;4.80;0.80;;;;;;;5.68;99.39;99609.89;111407;1267;22375;-73
2023/12/20 03:52:23;;;;;;;2.40;0.60;;;;;;;5.66;99.19;99609.88;111373;1266;22154;-74
2023/12/20 03:55:14;;;;;;;3.20;0.40;;;;;;;5.64;99.18;99607.83;111409;1263;23133;-74
2023/12/20 03:58:03;;;;;;;;;;;;;;;5.63;99.24;99608.59;111396;1264;22569;-75
2023/12/20 04:00:53;;;;;;;2.80;0.60;;;;;;;5.60;99.37;99609.45;111401;1266;22325;-73
2023/12/20 04:03:42;;;;;;;;;;;;;;;5.57;99.32;99608.86;111415;1260;23279;-75
2023/12/20 04:06:33;;;;;;;1.30;0.40;;;;;;;5.55;99.34;99609.97;111371;1261;22152;-74
2023/12/20 04:09:25;;;;;;;1.30;0.30;;;;;;;5.53;99.46;99608.94;111386;1260;23309;-74
2023/12/20 04:12:14;;;;;;;;;;;;;;;5.51;99.29;99607.54;111326;1265;22319;-74
2023/12/20 04:15:08;;;;;;;0.80;0.20;;;;;;;5.48;99.32;99615.30;111389;1263;22201;-74
2023/12/20 04:17:59;;;;;;;1.40;0.30;;;;;;;5.46;99.23;99613.44;111230;1266;22208;-74
2023/12/20 04:20:51;;;;;;;2.00;0.20;;;;;;;5.42;99.10;99609.15;111337;1268;22163;-74
2023/12/20 04:23:43;;;;;;;4.10;0.40;;;;;;;5.40;99.26;99609.64;111407;1263;22162;-74
2023/12/20 04:26:34;;;;;;;1.50;0.20;;;;;;;5.38;99.27;99612.41;111376;1260;23000;-75
2023/12/20 04:29:24;;;;;;;1.40;0.30;;;;;;;5.37;99.38;99612.23;111374;1256;22319;-73
2023/12/20 04:32:15;;;;;;;1.30;0.30;;;;;;;5.37;99.44;99613.66;111354;1266;23054;-75
2023/12/20 04:35:05;;;;;;;;;;;;;;;5.36;99.52;99615.11;111379;1260;22365;-78
2023/12/20 04:37:56;;;;;;;2.50;0.30;;;;;;;5.34;99.63;99609.45;111407;1268;22254;-77
2023/12/20 04:40:48;;;;;;;1.10;0.20;;;;;;;5.34;99.57;99606.55;111397;1268;22158;-74
2023/12/20 04:43:38;;;;;;;3.40;0.40;;;;;;;5.32;99.79;99604.67;111396;1260;22251;-76
2023/12/20 04:46:29;;;;;;;1.80;0.40;;;;;;;5.31;99.86;99607.51;111371;1264;22915;-76
2023/12/20 04:49:19;;;;;;;1.60;0.40;;;;;;;5.29;99.86;99602.52;111492;1263;22396;-76
2023/12/20 04:52:08;;;;;;;;;;;;;;;5.27;99.94;99604.34;111575;1266;23129;-75
2023/12/20 04:55:00;;;;;;;1.70;0.40;;;;;;;5.25;99.95;99598.77;111493;1260;23036;-75
2023/12/20 04:57:50;;;;;;;1.00;0.20;;;;;;;5.25;99.92;99596.70;111463;1266;22185;-73
2023/12/20 05:00:42;;;;;;;1.30;0.30;;;;;;;5.23;99.95;99592.09;109588;1264;24241;-73
2023/12/20 05:03:33;;;;;;;1.10;0.30;;;;;;;5.23;99.97;99592.83;108245;1264;22762;-73
2023/12/20 05:06:24;;;;;;;3.00;0.40;;;;;;;5.20;99.98;99592.70;108369;1261;22774;-72
2023/12/20 05:09:15;;;;;;;1.50;0.30;;;;;;;5.18;99.95;99593.84;108127;1265;25293;-73
2023/12/20 05:12:07;;;;;;;1.50;0.20;;;;;;;5.17;100.00;99589.83;108418;1264;24355;-73
2023/12/20 05:14:59;;;;;;;1.20;0.30;;;;;;;5.14;100.00;99588.20;108302;1263;22724;-74
2023/12/20 05:17:50;;;;;;;1.20;0.20;;;;;;;5.12;100.00;99585.95;108348;1268;22518;-74
2023/12/20 05:20:41;;;;;;;1.20;0.20;;;;;;;5.11;100.00;99585.87;108226;1261;22584;-74
2023/12/20 05:23:32;;;;;;;0.70;0.20;;;;;;;5.09;100.00;99586.91;108160;1261;24238;-74
2023/12/20 05:26:22;;;;;;;0.80;0.20;;;;;;;5.07;100.00;99588.75;108350;1266;22641;-74
2023/12/20 05:29:13;;;;;;;1.10;0.30;;;;;;;5.05;100.00;99590.48;108346;1266;23040;-75
2023/12/20 05:32:05;;;;;;;1.70;0.20;;;;;;;5.04;100.00;99591.70;108176;1265;22949;-74
2023/12/20 05:34:56;;;;;;;1.40;0.20;;;;;;;5.02;100.00;99593.61;108229;1268;25386;-74
2023/12/20 05:37:47;;;;;;;1.60;0.40;;;;;;;5.02;100.00;99593.80;108168;1268;25329;-75
2023/12/20 05:40:38;;;;;;;1.60;0.30;;;;;;;5.01;100.00;99597.63;108271;1260;22524;-74
2023/12/20 05:43:29;;;;;;;1.20;0.30;;;;;;;4.99;100.00;99601.86;108169;1263;22641;-74
2023/12/20 05:46:21;;;;;;;1.50;0.20;;;;;;;4.98;100.00;99606.98;108617;1260;22518;-74
2023/12/20 05:49:12;;;;;;;0.80;0.20;;;;;;;4.95;100.00;99604.55;108344;1268;24213;-74
2023/12/20 05:52:03;;;;;;;1.90;0.30;;;;;;;4.93;100.00;99605.16;108510;1268;25386;-74
2023/12/20 05:54:54;;;;;;;2.10;0.50;;;;;;;4.92;100.00;99599.49;108456;1264;22594;-75
2023/12/20 05:57:44;;;;;;;3.50;0.50;;;;;;;4.92;100.00;99600.64;108377;1268;22755;-74
2023/12/20 06:00:35;;;;;;;2.40;0.40;;;;;;;4.91;100.00;99596.27;108473;1266;25215;-74
2023/12/20 06:03:26;;;;;;;3.50;0.40;;;;;;;4.90;100.00;99595.75;108492;1260;22635;-74
2023/12/20 06:06:17;;;;;;;2.60;0.50;;;;;;;4.89;100.00;99591.44;108344;1260;25158;-74
2023/12/20 06:09:08;;;;;;;2.10;0.50;;;;;;;4.88;100.00;99591.25;108515;1266;22562;-73
2023/12/20 06:11:59;;;;;;;3.90;0.30;;;;;;;4.86;100.00;99597.95;108844;1260;22571;-74
2023/12/20 06:14:50;;;;;;;1.00;0.20;;;;;;;4.85;100.00;99594.75;108559;1267;22737;-73
2023/12/20 06:17:40;;;;;;;0.90;0.30;;;;;;;4.84;100.00;99587.27;108488;1268;26230;-74
2023/12/20 06:20:31;;;;;;;2.60;0.50;;;;;;;4.83;100.00;99589.52;108369;1267;25536;-73
2023/12/20 06:23:22;;;;;;;1.80;0.40;;;;;;;4.84;100.00;99593.46;108439;1263;24256;-74
2023/12/20 06:26:13;;;;;;;1.80;0.40;;;;;;;4.84;100.00;99593.70;108406;1261;22524;-74
2023/12/20 06:29:04;;;;;;;3.20;0.40;;;;;;;4.84;100.00;99591.10;108620;1266;22547;-76
2023/12/20 06:31:55;;;;;;;1.10;0.30;;;;;;;4.84;100.00;99593.76;108434;1268;22590;-73
2023/12/20 06:34:46;;;;;;;1.80;0.50;;;;;;;4.84;100.00;99594.90;108841;1268;22636;-73
2023/12/20 06:37:37;;;;;;;3.60;0.70;;;;;;;4.83;100.00;99594.20;108646;1268;23106;-75
2023/12/20 06:40:28;;;;;;;3.20;0.60;;;;;;;4.82;100.00;99596.22;109005;1260;22555;-77
2023/12/20 06:43:19;;;;;;;2.50;0.70;;;;;;;4.81;100.00;99599.56;108914;1263;22944;-74
2023/12/20 06:46:10;;;;;;;2.00;0.40;;;;;;;4.81;100.00;99601.56;108840;1260;24632;-77
2023/12/20 06:49:01;;;;;;;4.80;0.70;;;;;;;4.81;100.00;99605.44;108944;1268;22771;-77
2023/12/20 06:51:53;;;;;;;4.30;1.10;;;;;;;4.82;100.00;99600.98;108936;1263;22536;-76
2023/12/20 06:54:44;;;;;;;1.90;0.40;;;;;;;4.83;100.00;99598.26;108718;1268;22537;-76
2023/12/20 06:57:36;;;;;;;1.60;0.40;;;;;;;4.82;100.00;99598.52;108812;1265;22551;-77
2023/12/20 07:00:27;;;;;;;5.20;0.90;;;;;;;4.81;100.00;99600.36;108968;1266;22550;-76
2023/12/20 07:03:17;;;;;;;4.50;0.60;;;;;;;4.81;100.00;99606.69;109097;1263;23269;-76
2023/12/20 07:06:09;;;;;;;4.50;0.40;;;;;;;4.80;100.00;99611.63;109080;1268;23355;-76
2023/12/20 07:09:00;;;;;;;3.80;0.60;;;;;;;4.79;100.00;99612.21;109109;1266;22554;-77
2023/12/20 07:11:51;;;;;;;3.90;0.50;;;;;;;4.80;100.00;99608.73;109217;1268;25201;-76
2023/12/20 07:14:42;;;;;;;2.60;0.70;;;;;;;4.80;100.00;99611.55;109057;1268;25303;-76
2023/12/20 07:17:34;;;;;;;3.00;0.60;;;;;;;4.80;100.00;99612.90;108935;1266;25245;-77
2023/12/20 07:20:24;;;;;;;3.70;0.50;;;;;;;4.80;100.00;99615.66;109291;1262;23707;-76
2023/12/20 07:23:15;;;;;;;2.70;0.40;;;;;;;4.81;100.00;99618.22;109093;1257;24328;-76
2023/12/20 07:26:06;;;;;;;1.40;0.30;;;;;;;4.81;100.00;99613.27;109223;1268;23237;-76
2023/12/20 07:28:58;;;;;;;1.70;0.50;;;;;;;4.81;100.00;99617.84;109342;1268;24356;-76
2023/12/20 07:31:51;;;;;;;1.50;0.20;;;;;;;4.80;100.00;99620.33;109440;1264;23039;-75
2023/12/20 07:34:42;;;;;;;1.50;0.30;;;;;;;4.80;100.00;99619.70;108578;1268;22551;-76
2023/12/20 07:37:33;;;;;;;2.90;0.60;;;;;;;4.79;100.00;99622.34;108979;1268;22561;-75
2023/12/20 07:40:24;;;;;;;2.30;0.40;;;;;;;4.80;100.00;99621.84;108836;1266;22540;-75
2023/12/20 07:43:16;;;;;;;1.60;0.30;;;;;;;4.78;100.00;99620.93;109173;1268;23948;-76
2023/12/20 07:46:10;;;;;;;3.40;1.00;;;;;;;4.79;100.00;99624.55;108917;1266;25207;-75
2023/12/20 07:49:01;;;;;;;2.80;0.30;;;;;;;4.79;100.00;99621.40;109247;1268;23204;-76
2023/12/20 07:51:52;;;;;;;1.70;0.30;;;;;;;4.79;100.00;99623.84;109071;1258;25297;-76
2023/12/20 07:54:43;;;;;;;2.20;0.20;;;;;;;4.79;100.00;99624.77;109381;1243;22601;-77
2023/12/20 07:57:34;;;;;;;2.20;0.30;;;;;;;4.79;100.00;99626.61;109177;1263;22655;-76
2023/12/20 08:00:26;;;;;;;2.50;0.50;;;;;;;4.78;100.00;99626.86;108884;1265;22560;-76
2023/12/20 08:03:17;;;;;;;3.20;0.50;;;;;;;4.77;100.00;99633.21;108857;1260;23690;-75
2023/12/20 08:06:08;;;;;;;3.40;0.80;;;;;;;4.77;100.00;99628.48;109165;1265;22556;-75
2023/12/20 08:08:59;;;;;;;3.70;0.70;;;;;;;4.77;100.00;99634.33;109034;1257;22655;-76
2023/12/20 08:11:51;;;;;;;1.40;0.40;;;;;;;4.77;100.00;99630.55;109107;1265;22979;-76
2023/12/20 08:14:42;;;;;;;1.60;0.30;;;;;;;4.77;100.00;99625.89;109108;1268;23232;-76
2023/12/20 08:17:34;;;;;;;4.50;0.50;;;;;;;4.78;100.00;99626.17;108674;1259;22557;-76
2023/12/20 08:20:24;;;;;;;1.70;0.30;;;;;;;4.78;100.00;99629.08;108843;1266;22535;-76
2023/12/20 08:23:16;;;;;;;3.80;0.40;;;;;;;4.77;100.00;99632.11;108409;1266;23245;-75
2023/12/20 08:26:08;;;;;;;2.90;0.40;;;;;;;4.79;100.00;99632.55;108367;1261;24325;-77
2023/12/20 08:28:59;;;;;;;4.30;0.40;;;;;;;4.78;100.00;99628.61;108477;1248;23317;-76
2023/12/20 08:31:54;;;;;;;2.30;0.50;;;;;;;4.78;100.00;99638.71;108259;1268;22574;-75
2023/12/20 08:34:46;;;;;;;2.80;0.60;;;;;;;4.77;100.00;99644.84;108611;1268;23628;-75
2023/12/20 08:37:36;;;;;;;6.10;0.90;;;;;;;4.77;100.00;99636.33;109473;1259;22592;-76
2023/12/20 08:40:27;;;;;;;2.70;0.40;;;;;;;4.77;100.00;99637.25;109070;1256;22946;-76
2023/12/20 08:43:18;;;;;;;4.90;0.70;;;;;;;4.78;100.00;99631.16;109421;1256;22665;-75
2023/12/20 08:46:10;;;;;;;9.30;1.80;;;;;;;4.79;100.00;99642.33;109451;1265;22610;-76
2023/12/20 08:49:01;;;;;;;4.20;0.90;;;;;;;4.81;100.00;99650.70;109473;1267;24348;-76
2023/12/20 08:51:52;;;;;;;2.10;0.50;;;;;;;4.81;100.00;99652.84;109159;1263;24235;-74
2023/12/20 08:54:43;;;;;;;2.20;0.40;;;;;;;4.82;100.00;99660.28;109320;1265;22563;-78
2023/12/20 08:57:34;;;;;;;2.20;0.40;;;;;;;4.83;100.00;99658.84;108964;1257;22547;-76
2023/12/20 09:00:27;;;;;;;4.00;0.60;;;;;;;4.83;100.00;99659.39;109432;1266;22552;-77
2023/12/20 09:03:18;;;;;;;6.40;1.20;;;;;;;4.85;100.00;99659.95;109452;1268;24240;-76
2023/12/20 09:06:09;;;;;;;7.20;1.30;;;;;;;4.84;100.00;99664.49;109319;1263;22539;-77
2023/12/20 09:09:00;;;;;;;11.70;1.80;;;;;;;4.83;100.00;99662.23;109463;1268;25306;-76
2023/12/20 09:11:51;;;;;;;4.70;0.90;;;;;;;4.84;100.00;99656.20;109493;1268;22560;-77
2023/12/20 09:14:42;;;;;;;5.30;1.10;;;;;;;4.85;100.00;99659.80;109394;1267;22582;-77
2023/12/20 09:17:33;;;;;;;8.00;1.20;;;;;;;4.85;100.00;99664.60;109508;1267;22556;-77
2023/12/20 09:20:24;;;;;;;3.80;0.80;;;;;;;4.86;100.00;99658.02;109534;1261;22552;-76
2023/12/20 09:23:15;;;;;;;7.30;1.30;;;;;;;4.86;100.00;99663.92;109284;1261;23234;-76
2023/12/20 09:26:06;;;;;;;5.50;0.90;;;;;;;4.87;100.00;99669.52;109527;1264;22596;-77
2023/12/20 09:28:57;;;;;;;8.10;1.70;;;;;;;4.86;100.00;99670.31;109554;1268;22566;-76
2023/12/20 09:31:48;;;;;;;6.40;1.00;;;;;;;4.86;100.00;99670.56;109467;1268;22664;-78
2023/12/20 09:34:39;;;;;;;8.00;1.50;;;;;;;4.88;100.00;99674.55;109346;1260;25464;-77
2023/12/20 09:37:28;;;;;;;;;;;;;;;4.88;100.00;99677.97;109473;1268;22543;-76
2023/12/20 09:40:20;;;;;;;10.40;1.70;;;;;;;4.89;100.00;99669.74;109580;1266;22999;-76
2023/12/20 09:43:15;;;;;;;9.00;1.70;;;;;;;4.92;100.00;99673.45;109493;1267;22609;-76
2023/12/20 09:46:10;;;;;;;9.70;2.20;;;;;;;4.92;100.00;99674.03;109518;1266;25258;-76
2023/12/20 09:49:02;;;;;;;11.80;2.20;;;;;;;4.94;100.00;99675.02;109380;1267;22641;-77
2023/12/20 09:51:55;;;;;;;12.50;2.40;;;;;;;4.96;100.00;99672.73;111471;1268;22335;-76
2023/12/20 09:54:48;;;;;;;7.40;1.40;;;;;;;4.98;100.00;99660.16;111413;1267;22932;-77
2023/12/20 09:57:40;;;;;;;6.60;1.20;;;;;;;5.00;100.00;99660.23;111472;1266;22140;-77
2023/12/20 10:00:31;;;;;;;7.30;1.30;;;;;;;5.02;100.00;99655.88;111399;1260;22188;-77
2023/12/20 10:03:25;;;;;;;6.90;1.20;;;;;;;5.06;100.00;99649.40;111515;1266;22235;-74
2023/12/20 10:06:16;;;;;;;8.20;1.50;;;;;;;5.10;100.00;99651.91;111492;1263;22173;-74
2023/12/20 10:09:07;;;;;;;11.60;1.80;;;;;;;5.13;100.00;99648.23;111457;1266;22363;-75
2023/12/20 10:11:58;;;;;;;10.80;1.90;;;;;;;5.17;100.00;99643.05;111412;1266;22941;-74
2023/12/20 10:14:50;;;;;;;9.40;2.50;;;;;;;5.19;100.00;99636.87;111434;1266;22365;-74
2023/12/20 10:17:41;;;;;;;8.90;1.70;;;;;;;5.20;100.00;99639.05;111437;1259;22158;-74
2023/12/20 10:20:32;;;;;;;8.00;1.60;;;;;;;5.21;100.00;99640.02;111463;1260;22057;-74
2023/12/20 10:23:23;;;;;;;7.00;1.60;;;;;;;5.22;100.00;99643.55;111434;1261;22270;-75
2023/12/20 10:26:22;;;;;;;6.90;1.40;;;;;;;5.22;100.00;99642.17;111408;1260;22339;-74
2023/12/20 10:29:12;;;;;;;5.20;1.30;;;;;;;5.22;100.00;99644.23;111452;1261;22355;-74
2023/12/20 10:32:27;;;;;;;6.50;1.10;;;;;;;5.23;100.00;99647.45;111474;1268;22168;-74
2023/12/20 10:35:19;;;;;;;9.10;0.90;;;;;;;5.23;100.00;99642.85;111433;1263;22315;-74
2023/12/20 10:38:11;;;;;;;4.50;0.80;;;;;;;5.24;100.00;99638.54;111406;1264;22344;-75
2023/12/20 10:41:06;;;;;;;6.60;1.20;;;;;;;5.24;100.00;99637.98;111421;1268;22968;-73
2023/12/20 10:43:59;;;;;;;6.70;1.10;;;;;;;5.25;100.00;99641.50;111392;1268;22576;-75
2023/12/20 10:46:51;;;;;;;3.10;0.70;;;;;;;5.28;100.00;99647.39;111482;1268;23185;-74
2023/12/20 10:49:42;;;;;;;7.70;1.10;;;;;;;5.32;100.00;99648.56;111433;1268;22087;-75
2023/12/20 10:52:35;;;;;;;5.70;0.80;;;;;;;5.34;100.00;99645.25;111596;1266;22115;-74
2023/12/20 10:55:26;;;;;;;7.90;1.30;;;;;;;5.35;100.00;99646.80;111453;1267;22191;-73
2023/12/20 10:58:21;;;;;;;4.80;1.00;;;;;;;5.35;100.00;99645.52;111393;1268;22156;-75
2023/12/20 11:01:14;;;;;;;6.60;1.10;;;;;;;5.35;100.00;99644.45;111396;1267;22909;-75
2023/12/20 11:04:10;;;;;;;5.20;0.90;;;;;;;5.33;99.98;99633.61;111443;1268;22333;-74
2023/12/20 11:07:09;;;;;;;4.20;0.80;;;;;;;5.32;100.00;99625.86;111386;1267;22075;-75
2023/12/20 11:10:05;;;;;;;6.20;0.80;;;;;;;5.34;99.82;99623.16;111451;1266;23003;-74
2023/12/20 11:12:59;;;;;;;5.40;1.20;;;;;;;5.38;99.97;99624.61;111439;1265;22213;-74
2023/12/20 11:15:50;;;;;;;6.50;1.40;;;;;;;5.41;99.97;99622.73;111405;1256;22304;-74
2023/12/20 11:18:43;;;;;;;8.90;2.20;;;;;;;5.42;99.42;99620.26;111439;1265;22142;-73
2023/12/20 11:21:34;;;;;;;7.90;1.20;;;;;;;5.42;99.25;99614.38;111538;1266;22316;-74
2023/12/20 11:24:26;;;;;;;9.90;1.10;;;;;;;5.43;99.17;99614.27;111360;1268;22130;-75
2023/12/20 11:27:17;;;;;;;10.50;1.60;;;;;;;5.45;99.23;99608.81;111409;1266;22814;-75
2023/12/20 11:30:10;;;;;;;5.40;1.20;;;;;;;5.46;98.89;99602.58;111413;1263;22071;-73
2023/12/20 11:33:01;;;;;;;4.50;1.00;;;;;;;5.49;98.38;99602.40;111512;1267;22145;-74
2023/12/20 11:35:52;;;;;;;7.30;1.30;;;;;;;5.53;98.67;99599.39;111550;1261;22179;-74
2023/12/20 11:38:56;;;;;;;6.90;1.20;;;;;;;5.59;98.78;99593.48;111411;1266;22148;-74
2023/12/20 11:41:49;;;;;;;7.20;1.70;;;;;;;5.67;99.15;99588.07;111402;1260;22981;-74
2023/12/20 11:44:44;;;;;;;10.60;1.40;;;;;;;5.74;99.00;99587.77;111419;1267;22079;-74
2023/12/20 11:47:35;;;;;;;7.80;0.90;;;;;;;5.80;98.69;99576.99;111409;1267;22751;-74
2023/12/20 11:50:27;;;;;;;4.20;0.60;;;;;;;5.85;98.92;99571.45;111425;1259;22300;-74
2023/12/20 11:53:20;;;;;;;3.20;0.60;;;;;;;5.88;98.19;99565.35;111581;1267;22159;-74
2023/12/20 11:56:12;;;;;;;4.00;0.80;;;;;;;5.92;98.19;99560.13;111426;1265;22292;-74
2023/12/20 11:59:03;;;;;;;4.50;0.50;;;;;;;5.97;98.04;99556.08;111452;1268;22176;-76
2023/12/20 12:01:56;;;;;;;3.30;0.60;;;;;;;6.01;97.51;99552.73;111388;1268;22217;-74
2023/12/20 12:04:50;;;;;;;6.90;0.50;;;;;;;6.04;96.81;99549.20;111430;1268;22338;-74
2023/12/20 12:07:41;;;;;;;4.90;0.60;;;;;;;6.07;96.26;99549.68;111408;1268;22209;-73
2023/12/20 12:10:33;;;;;;;3.60;0.30;;;;;;;6.12;96.57;99546.79;111454;1267;22258;-75
2023/12/20 12:13:27;;;;;;;7.10;0.80;;;;;;;6.15;96.13;99544.88;111416;1267;22768;-74
2023/12/20 12:16:21;;;;;;;8.30;0.80;;;;;;;6.17;95.72;99538.69;111406;1266;23332;-75
2023/12/20 12:19:23;;;;;;;1.90;0.40;;;;;;;6.17;95.32;99529.89;111393;1268;22209;-75
2023/12/20 12:22:16;;;;;;;7.40;0.70;;;;;;;6.18;95.44;99521.64;111397;1265;22336;-75
2023/12/20 12:25:14;;;;;;;1.00;0.20;;;;;;;6.17;94.97;99520.86;111424;1268;23071;-73
2023/12/20 12:28:06;;;;;;;3.20;0.40;;;;;;;6.17;94.65;99516.63;111460;1268;22124;-75
2023/12/20 12:31:01;;;;;;;4.70;0.40;;;;;;;6.15;94.40;99508.41;111395;1266;22185;-74
2023/12/20 12:33:52;;;;;;;6.60;0.40;;;;;;;6.14;94.02;99503.45;111451;1266;22373;-73
2023/12/20 12:36:43;;;;;;;3.50;0.60;;;;;;;6.13;93.79;99506.13;111460;1264;22290;-75
2023/12/20 12:39:35;;;;;;;1.70;0.40;;;;;;;6.12;93.68;99507.52;111391;1267;22349;-74
2023/12/20 12:42:28;;;;;;;4.10;0.50;;;;;;;6.11;93.92;99503.02;111389;1266;22080;-74
2023/12/20 12:45:19;;;;;;;3.60;0.40;;;;;;;6.11;93.80;99496.06;111466;1263;22114;-74
2023/12/20 12:48:10;;;;;;;3.30;0.60;;;;;;;6.11;93.66;99498.10;111436;1267;22162;-74
2023/12/20 12:51:01;;;;;;;4.80;0.50;;;;;;;6.11;93.05;99487.60;111444;1266;22142;-74
2023/12/20 12:53:52;;;;;;;2.50;0.50;;;;;;;6.11;93.00;99488.80;111436;1264;22177;-74
2023/12/20 12:56:43;;;;;;;5.20;0.50;;;;;;;6.11;93.14;99492.71;111488;1263;22621;-75
2023/12/20 12:59:34;;;;;;;5.20;0.90;;;;;;;6.11;92.83;99491.54;111551;1263;22320;-74
2023/12/20 13:02:25;;;;;;;4.40;0.80;;;;;;;6.11;92.86;99487.59;111405;1260;22134;-75
2023/12/20 13:05:17;;;;;;;5.20;0.90;;;;;;;6.12;92.97;99494.98;111405;1266;22344;-74
2023/12/20 13:08:09;;;;;;;5.30;0.60;;;;;;;6.11;92.10;99499.45;111394;1266;22334;-74
2023/12/20 13:11:00;;;;;;;4.40;0.70;;;;;;;6.11;92.27;99499.45;111392;1268;22148;-74
2023/12/20 13:13:51;;;;;;;3.90;0.50;;;;;;;6.11;92.53;99493.60;111373;1269;22212;-75
2023/12/20 13:16:42;;;;;;;3.40;0.70;;;;;;;6.11;92.38;99488.77;111413;1268;22130;-75
2023/12/20 13:19:31;;;;;;;;;;;;;;;6.12;92.30;99488.98;111377;1269;22288;-74
2023/12/20 13:22:22;;;;;;;4.80;0.60;;;;;;;6.11;92.45;99478.17;111427;1267;22100;-73
2023/12/20 13:25:12;;;;;;;5.80;0.50;;;;;;;6.09;91.56;99475.33;111369;1267;22074;-74